Overview Statistics Trail Chart Weather Telemetry Raw packets
 

This is the latest recevied telemetry packets stored in our database for station/object EA4CZ. If no packets are shown the sender has not sent any telemetry packets the latest 10 day(s).

Telemetry packets is used to share measurements like repeteater parameters, battery voltage, radiation readings (or any other measurements).

<< 1 2 3 4 >>
Time VBAT* Temp* Hum* Co2* Value5*
1788582601 12.09 V 26.1 C 33 % 362 ppm 0
1788581701 12.12 V 26.2 C 33 % 364 ppm 0
1788580800 12.15 V 26.3 C 33 % 359 ppm 0
1788579907 12.18 V 26.4 C 33 % 360 ppm 0
1788579001 12.21 V 26.3 C 33 % 359 ppm 0
1788578101 12.24 V 27.1 C 33 % 356 ppm 0
1788577200 12.28 V 26.8 C 33 % 365 ppm 0
1788576300 12.36 V 26.8 C 32 % 358 ppm 0
1788575401 13.12 V 26.9 C 32 % 362 ppm 0
1788574500 13.12 V 27 C 31 % 367 ppm 0
1788573600 13.11 V 27.2 C 30 % 363 ppm 0
1788572700 13.11 V 27.4 C 29 % 366 ppm 0
1788571801 13.09 V 27.5 C 29 % 364 ppm 0
1788570901 13.08 V 27.4 C 29 % 363 ppm 0
1788570000 13.06 V 27.6 C 29 % 388 ppm 0
1788569100 13.06 V 27.7 C 28 % 364 ppm 0
1788568201 13.05 V 27.9 C 28 % 361 ppm 0
1788567300 13.03 V 28.4 C 27 % 362 ppm 0
1788566400 13.03 V 28.5 C 26 % 365 ppm 0
1788565501 13.03 V 28.9 C 26 % 368 ppm 0
1788564601 13.03 V 29.2 C 26 % 361 ppm 0
1788562800 11.85 V 30.1 C 24 % 363 ppm 0
1788561001 11.93 V 30.4 C 23 % 358 ppm 0
1788560100 11.95 V 31 C 22 % 363 ppm 0
1788558301 12.01 V 31.3 C 21 % 365 ppm 0
*Used Equation Coefficients:
VBAT: 0, 1, 0
Temp: 0, 1, 0
Hum: 0, 1, 0
Co2: 0, 1, 0
Value5: 0, 0, 0

  • The parameter names for the analog channels will be Value1, Value2, Value3 (up to Value5) if station has not sent a PARAM-packet that specifies the parameter names for each analog channel.
  • Each analog value is a decimal number between 000 and 255 (according to APRS specifications). The receiver use the telemetry equation coefficientsto to restore the original sensor values. If no EQNS-packet with equation coefficients is sent we will show the values as is (this corresponds to the equation coefficients a=0, b=1 and c=0).
    The sent equation coefficients is used in the equation: a * value2 + b * value + c.
  • The units for the analog values will not be shown if station has not sent a UNIT-packet specifying what unit's to use.
  • The parameter names for the digital bits will be Bit1, Bit2, Bit3 (up to Bit8) if station has not sent a PARAM-packet that specifies the parameter names for each digital bit.
  • All bit labels will be named "On" if station has not sent a UNIT-packet that specifies the label of each bit.
  • A bit is considered to be On when the bit is 1 if station has not sent a BITS-packet that specifies another "Bit sense" (a BITS-packet specify the state of the bits that match the BIT labels)